Time;durP1;ratioP1;P1;durP2;ratioP2;P2;SDS_P1;SDS_P2;PMS_P1;PMS_P2;Temp;Humidity;BMP_temperature;BMP_pressure;BME280_temperature;BME280_humidity;BME280_pressure;Samples;Min_cycle;Max_cycle;Signal;HPM_P1;HPM_P2
2023/01/20 00:01:34;;;;;;;48.50;25.42;;;;;;;-1.73;100.00;100268.84;4934250;28;20070;-82
2023/01/20 00:04:01;;;;;;;53.38;26.48;;;;;;;-1.76;100.00;100267.03;4931797;28;20435;-81
2023/01/20 00:06:29;;;;;;;45.97;22.58;;;;;;;-1.78;100.00;100272.94;4927098;28;20414;-81
2023/01/20 00:09:00;;;;;;;39.40;22.08;;;;;;;-1.76;100.00;100278.97;4960966;28;20125;-80
2023/01/20 00:11:28;;;;;;;38.00;19.17;;;;;;;-1.79;100.00;100266.91;4925280;28;20418;-80
2023/01/20 00:13:57;;;;;;;41.03;19.65;;;;;;;-1.85;100.00;100282.97;4938871;28;20039;-80
2023/01/20 00:16:25;;;;;;;41.00;20.85;;;;;;;-1.90;100.00;100281.06;4941236;28;20043;-80
2023/01/20 00:18:52;;;;;;;45.30;20.73;;;;;;;-1.91;100.00;100287.88;4938233;28;20062;-82
2023/01/20 00:21:19;;;;;;;40.90;21.00;;;;;;;-1.90;100.00;100289.63;4941761;28;20132;-81
2023/01/20 00:23:47;;;;;;;36.25;20.02;;;;;;;-1.94;100.00;100292.91;4919875;28;20066;-81
2023/01/20 00:26:20;;;;;;;42.72;21.25;;;;;;;-1.95;100.00;100300.56;4943275;28;20039;-80
2023/01/20 00:28:49;;;;;;;38.65;19.40;;;;;;;-2.05;100.00;100302.75;4911160;28;20056;-80
2023/01/20 00:31:24;;;;;;;45.17;21.13;;;;;;;-2.07;100.00;100301.00;4936501;28;20043;-81
2023/01/20 00:33:53;;;;;;;35.35;18.13;;;;;;;-2.04;100.00;100293.41;4938711;28;20043;-80
2023/01/20 00:36:21;;;;;;;35.88;18.60;;;;;;;-2.03;100.00;100300.28;4956759;28;20073;-81
2023/01/20 00:38:48;;;;;;;41.30;21.17;;;;;;;-1.98;100.00;100311.59;4947505;28;20043;-80
2023/01/20 00:41:16;;;;;;;45.50;20.30;;;;;;;-2.01;100.00;100312.34;4952078;28;20055;-81
2023/01/20 00:43:43;;;;;;;39.17;19.88;;;;;;;-2.06;100.00;100312.97;4949169;28;20422;-80
2023/01/20 00:46:11;;;;;;;38.70;21.20;;;;;;;-2.05;100.00;100322.41;4941382;28;20055;-80
2023/01/20 00:48:38;;;;;;;38.15;19.42;;;;;;;-2.09;100.00;100318.00;4937618;29;20062;-79
2023/01/20 00:51:06;;;;;;;34.72;18.77;;;;;;;-2.15;100.00;100323.78;4917260;29;20052;-82
2023/01/20 00:53:33;;;;;;;39.63;19.27;;;;;;;-2.23;100.00;100325.16;4918059;29;20075;-82
2023/01/20 00:56:00;;;;;;;43.95;22.38;;;;;;;-2.30;100.00;100330.91;4919997;29;20822;-81
2023/01/20 00:58:27;;;;;;;42.08;19.45;;;;;;;-2.32;100.00;100333.41;4922368;29;20669;-81
2023/01/20 01:00:55;;;;;;;42.53;19.90;;;;;;;-2.37;100.00;100343.47;4909459;29;20044;-81
2023/01/20 01:03:22;;;;;;;37.40;19.40;;;;;;;-2.41;100.00;100331.38;4935012;29;20086;-80
2023/01/20 01:05:49;;;;;;;33.65;17.88;;;;;;;-2.40;100.00;100335.69;4925162;29;20673;-81
2023/01/20 01:08:16;;;;;;;39.08;18.30;;;;;;;-2.43;100.00;100335.53;4922063;29;20070;-81
2023/01/20 01:10:43;;;;;;;45.22;19.75;;;;;;;-2.45;100.00;100342.31;4917491;29;20498;-80
2023/01/20 01:13:10;;;;;;;47.60;22.60;;;;;;;-2.42;100.00;100344.13;4918215;29;20407;-81
2023/01/20 01:15:37;;;;;;;37.75;19.60;;;;;;;-2.39;100.00;100346.81;4918449;29;20065;-80
2023/01/20 01:18:04;;;;;;;35.95;19.45;;;;;;;-2.34;100.00;100343.59;4901912;29;20517;-79
2023/01/20 01:20:31;;;;;;;42.63;20.33;;;;;;;-2.33;100.00;100347.03;4917833;29;20047;-80
2023/01/20 01:22:57;;;;;;;35.55;18.52;;;;;;;-2.34;100.00;100351.28;4903146;29;20047;-81
2023/01/20 01:25:24;;;;;;;39.53;23.00;;;;;;;-2.27;100.00;100354.09;4933164;29;20090;-82
2023/01/20 01:27:51;;;;;;;41.25;18.92;;;;;;;-2.28;100.00;100353.22;4921925;23;20054;-81
2023/01/20 01:30:18;;;;;;;41.42;21.23;;;;;;;-2.26;100.00;100360.97;4965037;28;20941;-82
2023/01/20 01:32:44;;;;;;;36.65;18.95;;;;;;;-2.23;100.00;100359.41;4951057;28;20074;-81
2023/01/20 01:35:11;;;;;;;39.22;18.75;;;;;;;-2.20;100.00;100358.63;4966943;28;20460;-80
2023/01/20 01:37:38;;;;;;;37.70;18.77;;;;;;;-2.18;100.00;100355.31;4973957;23;20166;-80
2023/01/20 01:40:08;;;;;;;37.17;18.85;;;;;;;-2.07;100.00;100360.84;4927711;28;20126;-80
2023/01/20 01:42:36;;;;;;;45.78;22.00;;;;;;;-2.03;100.00;100360.13;4912529;29;20048;-79
2023/01/20 01:45:11;;;;;;;45.10;21.65;;;;;;;-1.96;100.00;100358.66;4927536;28;20078;-80
2023/01/20 01:47:44;;;;;;;39.50;19.25;;;;;;;-1.97;100.00;100354.34;4928463;28;20043;-79
2023/01/20 01:50:20;;;;;;;42.10;18.38;;;;;;;-1.99;100.00;100358.56;4924629;28;20140;-80
2023/01/20 01:52:53;;;;;;;42.33;20.15;;;;;;;-1.98;100.00;100354.28;4926542;28;20051;-80
2023/01/20 01:55:26;;;;;;;36.97;18.45;;;;;;;-2.06;100.00;100354.91;4946561;28;20035;-80
2023/01/20 01:57:54;;;;;;;32.70;18.63;;;;;;;-2.08;100.00;100363.34;4940942;23;20054;-79
2023/01/20 02:00:21;;;;;;;38.75;21.27;;;;;;;-2.04;100.00;100365.22;4953742;28;20103;-80
2023/01/20 02:02:47;;;;;;;36.25;18.25;;;;;;;-2.00;100.00;100372.19;4954190;28;20047;-80
2023/01/20 02:05:16;;;;;;;42.97;21.27;;;;;;;-2.01;100.00;100375.56;4957187;28;20062;-79
2023/01/20 02:07:48;;;;;;;36.15;18.58;;;;;;;-2.05;100.00;100378.84;4940441;28;20037;-79
2023/01/20 02:10:16;;;;;;;34.25;17.98;;;;;;;-2.14;100.00;100373.38;4921021;28;20050;-79
2023/01/20 02:12:48;;;;;;;40.13;18.27;;;;;;;-2.18;100.00;100377.50;4936466;28;20482;-79
2023/01/20 02:15:16;;;;;;;37.28;18.65;;;;;;;-2.22;100.00;100365.38;4942986;28;20516;-81
2023/01/20 02:18:19;;;;;;;37.58;17.40;;;;;;;-2.28;100.00;100378.84;4949063;28;20059;-79
2023/01/20 02:21:19;;;;;;;35.75;16.92;;;;;;;-2.37;100.00;100379.38;4934804;28;20130;-79
2023/01/20 02:24:18;;;;;;;41.83;20.42;;;;;;;-2.39;100.00;100387.81;4936477;28;20113;-80
2023/01/20 02:27:06;;;;;;;43.10;19.05;;;;;;;-2.35;100.00;100392.25;4954200;28;20043;-80
2023/01/20 02:30:06;;;;;;;36.70;18.27;;;;;;;-2.33;100.00;100391.50;4936471;28;20039;-81
2023/01/20 02:32:47;;;;;;;37.58;18.40;;;;;;;-2.29;100.00;100405.31;4940681;28;20037;-80
2023/01/20 02:35:37;;;;;;;37.13;18.67;;;;;;;-2.30;100.00;100402.69;4916137;28;20047;-81
2023/01/20 02:38:37;;;;;;;31.98;17.85;;;;;;;-2.32;100.00;100420.59;4936612;28;20043;-82
2023/01/20 02:41:29;;;;;;;30.63;15.90;;;;;;;-2.37;100.00;100417.81;4957296;28;20051;-80
2023/01/20 02:44:18;;;;;;;34.53;18.30;;;;;;;-2.41;100.00;100413.41;4904209;28;20070;-80
2023/01/20 02:46:54;;;;;;;35.60;18.67;;;;;;;-2.40;100.00;100417.72;4943317;28;20046;-81
2023/01/20 02:49:33;;;;;;;39.90;19.30;;;;;;;-2.42;100.00;100413.34;4945992;28;20043;-82
2023/01/20 02:52:13;;;;;;;37.65;18.42;;;;;;;-2.43;100.00;100420.13;4968301;28;20047;-81
2023/01/20 02:54:42;;;;;;;38.50;18.60;;;;;;;-2.38;100.00;100425.47;4929345;28;20134;-80
2023/01/20 02:57:12;;;;;;;36.83;19.33;;;;;;;-2.37;100.00;100417.81;4950507;28;20075;-80
2023/01/20 02:59:45;;;;;;;38.97;17.65;;;;;;;-2.30;100.00;100413.81;4907230;29;20974;-81
2023/01/20 03:02:21;;;;;;;34.83;17.58;;;;;;;-2.25;100.00;100420.00;4906517;29;20062;-80
2023/01/20 03:04:56;;;;;;;36.65;18.50;;;;;;;-2.24;100.00;100421.75;4948162;29;20057;-81
2023/01/20 03:07:27;;;;;;;45.75;19.70;;;;;;;-2.18;100.00;100424.56;4928348;29;20043;-80
2023/01/20 03:09:57;;;;;;;40.20;17.90;;;;;;;-2.17;100.00;100420.28;4932395;29;20043;-80
2023/01/20 03:12:38;;;;;;;47.72;21.38;;;;;;;-2.15;100.00;100421.25;4937362;29;20058;-81
2023/01/20 03:15:07;;;;;;;39.47;19.35;;;;;;;-2.14;100.00;100417.84;4952389;29;20042;-81
2023/01/20 03:17:35;;;;;;;38.85;20.23;;;;;;;-2.10;100.00;100416.28;4949659;29;20043;-81
2023/01/20 03:20:02;;;;;;;47.85;20.77;;;;;;;-2.08;100.00;100423.22;4934238;29;20046;-82
2023/01/20 03:22:31;;;;;;;40.08;17.80;;;;;;;-2.00;100.00;100428.63;4929449;29;20067;-80
2023/01/20 03:24:59;;;;;;;50.33;19.60;;;;;;;-2.05;100.00;100425.88;4927699;29;20036;-79
2023/01/20 03:27:27;;;;;;;42.33;20.27;;;;;;;-2.09;100.00;100430.84;4911807;29;20115;-80
2023/01/20 03:29:53;;;;;;;46.35;19.33;;;;;;;-2.21;100.00;100423.56;4921520;29;20126;-80
2023/01/20 03:32:25;;;;;;;39.03;19.23;;;;;;;-2.24;100.00;100432.00;4906281;29;20420;-81
2023/01/20 03:34:54;;;;;;;35.20;17.13;;;;;;;-2.31;100.00;100435.13;4905898;29;20066;-79
2023/01/20 03:37:22;;;;;;;40.03;19.27;;;;;;;-2.36;100.00;100442.66;4922388;29;20055;-80
2023/01/20 03:39:51;;;;;;;37.70;18.77;;;;;;;-2.37;100.00;100442.59;4935877;29;20467;-80
2023/01/20 03:42:33;;;;;;;33.45;16.70;;;;;;;-2.38;100.00;100453.66;4933173;28;20120;-80
2023/01/20 03:45:10;;;;;;;35.97;16.98;;;;;;;-2.36;100.00;100455.47;4909964;29;20066;-80
2023/01/20 03:47:43;;;;;;;37.78;17.63;;;;;;;-2.34;100.00;100458.09;4917857;29;20840;-81
2023/01/20 03:50:27;;;;;;;36.28;18.27;;;;;;;-2.27;100.00;100467.75;4915712;29;20052;-81
2023/01/20 03:53:18;;;;;;;41.80;18.30;;;;;;;-2.26;100.00;100469.50;4917178;29;20047;-80
2023/01/20 03:56:16;;;;;;;38.88;17.67;;;;;;;-2.27;100.00;100465.19;4922044;29;21037;-80
2023/01/20 03:58:48;;;;;;;36.20;17.38;;;;;;;-2.34;100.00;100476.91;4933449;28;20066;-81
2023/01/20 04:01:18;;;;;;;34.65;18.90;;;;;;;-2.39;100.00;100485.22;4932556;29;20052;-82
2023/01/20 04:03:48;;;;;;;32.08;16.58;;;;;;;-2.44;100.00;100489.28;4910184;29;20343;-81
2023/01/20 04:06:18;;;;;;;45.78;17.65;;;;;;;-2.52;100.00;100488.97;4942357;29;20765;-81
2023/01/20 04:08:53;;;;;;;41.63;16.98;;;;;;;-2.62;100.00;100491.97;4911851;29;20210;-80
2023/01/20 04:11:19;;;;;;;;;;;;;;;-2.62;100.00;100497.09;4901914;29;20063;-81
2023/01/20 04:13:46;;;;;;;31.60;15.70;;;;;;;-2.63;100.00;100492.75;4942301;29;19926;-79
2023/01/20 04:16:18;;;;;;;40.22;17.48;;;;;;;-2.63;100.00;100488.53;4914490;29;20402;-79
2023/01/20 04:18:49;;;;;;;34.47;17.75;;;;;;;-2.62;100.00;100491.97;4924296;29;20046;-80
2023/01/20 04:21:31;;;;;;;32.20;16.40;;;;;;;-2.68;100.00;100490.91;4941585;29;20070;-83
2023/01/20 04:24:30;;;;;;;39.08;17.98;;;;;;;-2.79;100.00;100488.69;4957730;29;20047;-79
2023/01/20 04:26:57;;;;;;;31.42;16.10;;;;;;;-2.84;100.00;100499.63;4941912;29;20095;-81
2023/01/20 04:29:23;;;;;;;37.90;17.92;;;;;;;-2.86;100.00;100492.69;4936518;29;20043;-82
2023/01/20 04:31:50;;;;;;;37.28;16.45;;;;;;;-2.98;100.00;100505.84;4940408;29;20050;-79
2023/01/20 04:34:16;;;;;;;33.00;18.02;;;;;;;-3.02;100.00;100509.09;4897383;29;20082;-89
2023/01/20 04:36:43;;;;;;;37.10;18.60;;;;;;;-3.04;100.00;100515.81;4923385;29;20048;-80
2023/01/20 04:39:10;;;;;;;35.65;17.10;;;;;;;-3.02;100.00;100519.34;4921602;29;20060;-79
2023/01/20 04:41:36;;;;;;;34.45;17.50;;;;;;;-3.02;100.00;100519.34;4938623;29;20066;-78
2023/01/20 04:44:03;;;;;;;38.30;18.90;;;;;;;-2.99;100.00;100522.00;4905825;29;20114;-79
2023/01/20 04:46:31;;;;;;;32.67;16.98;;;;;;;-3.01;100.00;100524.50;4919617;29;20047;-80
2023/01/20 04:48:57;;;;;;;34.97;17.50;;;;;;;-3.00;100.00;100527.94;4922239;29;20352;-79
2023/01/20 04:51:24;;;;;;;40.15;21.20;;;;;;;-3.05;100.00;100530.31;4933221;29;20122;-77
2023/01/20 04:53:57;;;;;;;37.65;19.02;;;;;;;-3.14;100.00;100535.03;4920919;29;20062;-78
2023/01/20 04:56:23;;;;;;;35.38;17.63;;;;;;;-3.20;100.00;100529.63;4935821;28;20042;-79
2023/01/20 04:58:50;;;;;;;37.08;17.45;;;;;;;-3.18;100.00;100528.91;4907212;29;20489;-79
2023/01/20 05:01:17;;;;;;;33.67;17.50;;;;;;;-3.12;100.00;100525.72;4926219;29;20123;-80
2023/01/20 05:03:45;;;;;;;39.65;18.15;;;;;;;-3.06;100.00;100530.25;4941651;29;20035;-81
2023/01/20 05:06:11;;;;;;;37.17;17.20;;;;;;;-3.06;100.00;100526.00;4957186;28;20102;-79
2023/01/20 05:08:38;;;;;;;37.88;17.70;;;;;;;-3.04;100.00;100533.75;4906445;29;20110;-79
2023/01/20 05:11:06;;;;;;;37.65;16.40;;;;;;;-3.02;100.00;100542.38;4902389;29;20055;-81
2023/01/20 05:13:37;;;;;;;38.42;18.42;;;;;;;-2.94;100.00;100535.03;4922447;29;20044;-79
2023/01/20 05:16:08;;;;;;;37.65;18.85;;;;;;;-2.93;100.00;100539.31;4922235;29;20430;-79
2023/01/20 05:18:35;;;;;;;40.85;20.77;;;;;;;-2.94;100.00;100542.72;4937108;29;20134;-80
2023/01/20 05:21:04;;;;;;;35.03;16.52;;;;;;;-2.96;100.00;100544.31;4932508;29;20047;-80
2023/01/20 05:23:46;;;;;;;33.30;18.20;;;;;;;-3.00;100.00;100545.88;4887900;29;20071;-79
2023/01/20 05:26:13;;;;;;;35.40;17.40;;;;;;;-3.03;100.00;100544.03;4913389;29;21120;-79
2023/01/20 05:28:40;;;;;;;31.02;17.00;;;;;;;-3.05;100.00;100550.81;4901524;29;20050;-79
2023/01/20 05:31:08;;;;;;;38.10;17.63;;;;;;;-2.95;100.00;100551.19;4916232;29;20697;-81
2023/01/20 05:33:41;;;;;;;32.15;14.93;;;;;;;-2.91;100.00;100553.09;4948277;29;20763;-81
2023/01/20 05:36:11;;;;;;;38.05;18.42;;;;;;;-2.86;100.00;100557.59;4915760;29;20142;-82
2023/01/20 05:38:42;;;;;;;34.92;17.27;;;;;;;-2.76;100.00;100556.31;4926896;29;20106;-80
2023/01/20 05:41:16;;;;;;;38.00;17.67;;;;;;;-2.55;100.00;100558.91;4940904;29;20047;-79
2023/01/20 05:43:44;;;;;;;35.25;18.73;;;;;;;-2.40;100.00;100560.38;4910911;29;20044;-79
2023/01/20 05:46:12;;;;;;;38.67;17.60;;;;;;;-2.31;100.00;100570.16;4924385;29;20039;-79
2023/01/20 05:48:41;;;;;;;37.65;17.08;;;;;;;-2.28;100.00;100567.72;4908298;29;20058;-78
2023/01/20 05:51:12;;;;;;;35.05;16.65;;;;;;;-2.20;100.00;100568.91;4922943;29;20707;-78
2023/01/20 05:53:39;;;;;;;42.05;17.23;;;;;;;-2.16;100.00;100566.53;4914103;29;20375;-78
2023/01/20 05:56:06;;;;;;;38.10;18.23;;;;;;;-2.02;100.00;100566.22;4928831;28;20696;-80
2023/01/20 05:58:36;;;;;;;38.40;17.13;;;;;;;-1.93;100.00;100569.16;4923875;29;20090;-81
2023/01/20 06:01:19;;;;;;;33.17;19.45;;;;;;;-1.95;100.00;100573.34;4920401;29;20052;-80
2023/01/20 06:03:45;;;;;;;28.83;16.50;;;;;;;-1.99;100.00;100574.03;4926111;29;20039;-81
2023/01/20 06:06:16;;;;;;;37.40;18.08;;;;;;;-2.02;100.00;100581.59;4921132;29;20091;-79
2023/01/20 06:08:43;;;;;;;35.67;17.77;;;;;;;-2.01;100.00;100580.78;4924509;29;20680;-80
2023/01/20 06:11:10;;;;;;;38.97;17.70;;;;;;;-2.02;100.00;100581.59;4928596;29;20122;-78
2023/01/20 06:13:39;;;;;;;36.30;17.38;;;;;;;-2.04;100.00;100591.81;4942510;29;20106;-81
2023/01/20 06:16:06;;;;;;;32.95;17.65;;;;;;;-1.96;100.00;100586.97;4925768;29;20043;-80
2023/01/20 06:18:34;;;;;;;37.85;19.40;;;;;;;-1.83;100.00;100586.66;4938086;29;20707;-81
2023/01/20 06:21:01;;;;;;;34.95;17.90;;;;;;;-1.66;100.00;100599.28;4902501;29;20044;-79
2023/01/20 06:23:30;;;;;;;38.55;20.00;;;;;;;-1.54;100.00;100596.34;4908186;29;20067;-78
2023/01/20 06:26:06;;;;;;;37.15;19.63;;;;;;;-1.50;100.00;100603.34;4934137;29;20043;-79
2023/01/20 06:28:33;;;;;;;40.20;19.08;;;;;;;-1.48;100.00;100603.41;4901967;29;20091;-79
2023/01/20 06:31:15;;;;;;;38.35;18.25;;;;;;;-1.46;100.00;100609.47;4903759;29;20076;-81
2023/01/20 06:33:44;;;;;;;34.35;17.70;;;;;;;-1.46;100.00;100612.94;4919866;29;20174;-79
2023/01/20 06:36:14;;;;;;;44.55;21.63;;;;;;;-1.42;100.00;100617.38;4939917;29;20107;-83
2023/01/20 06:38:43;;;;;;;36.25;18.50;;;;;;;-1.38;100.00;100614.09;4922962;29;20126;-81
2023/01/20 06:41:11;;;;;;;33.20;19.10;;;;;;;-1.35;100.00;100624.47;4935642;29;20047;-81
2023/01/20 06:43:40;;;;;;;33.65;19.02;;;;;;;-1.33;100.00;100629.66;4929483;29;20800;-78
2023/01/20 06:46:12;;;;;;;41.20;19.67;;;;;;;-1.28;100.00;100628.16;4926644;29;20055;-81
2023/01/20 06:48:41;;;;;;;42.97;21.45;;;;;;;-1.24;100.00;100634.28;4925065;29;20047;-81
2023/01/20 06:51:14;;;;;;;36.58;17.52;;;;;;;-1.23;100.00;100636.91;4940507;29;20049;-81
2023/01/20 06:53:42;;;;;;;36.25;19.77;;;;;;;-1.24;100.00;100637.75;4909831;29;20048;-82
2023/01/20 06:56:14;;;;;;;47.30;20.23;;;;;;;-1.23;100.00;100639.47;4911311;29;20573;-82
2023/01/20 06:58:42;;;;;;;35.58;18.95;;;;;;;-1.26;100.00;100638.50;4924343;29;20075;-80
2023/01/20 07:01:32;;;;;;;40.58;19.75;;;;;;;-1.28;100.00;100643.56;4924063;29;20082;-81
2023/01/20 07:03:59;;;;;;;32.80;17.13;;;;;;;-1.33;100.00;100653.69;4921049;29;20056;-81
2023/01/20 07:06:42;;;;;;;44.45;21.65;;;;;;;-1.33;100.00;100645.06;4923815;29;20086;-80
2023/01/20 07:09:12;;;;;;;36.20;18.17;;;;;;;-1.33;100.00;100653.69;4919616;29;20051;-78
2023/01/20 07:11:42;;;;;;;38.60;16.88;;;;;;;-1.37;100.00;100650.91;4931638;29;20174;-80
2023/01/20 07:14:09;;;;;;;36.63;18.95;;;;;;;-1.40;100.00;100654.22;4904253;29;20054;-81
2023/01/20 07:16:37;;;;;;;39.28;18.48;;;;;;;-1.43;100.00;100661.81;4934764;29;20056;-80
2023/01/20 07:19:04;;;;;;;43.90;21.35;;;;;;;-1.40;100.00;100668.78;4915447;29;20043;-81
2023/01/20 07:21:33;;;;;;;40.70;19.85;;;;;;;-1.43;100.00;100673.81;4893309;29;20070;-80
2023/01/20 07:24:02;;;;;;;35.92;17.60;;;;;;;-1.48;100.00;100683.00;4916579;29;20051;-81
2023/01/20 07:26:29;;;;;;;38.40;21.40;;;;;;;-1.52;100.00;100685.44;4918388;29;20066;-80
2023/01/20 07:28:59;;;;;;;41.00;20.88;;;;;;;-1.54;100.00;100686.19;4900270;29;20059;-82
2023/01/20 07:31:30;;;;;;;37.45;18.00;;;;;;;-1.57;100.00;100693.78;4905689;29;20051;-80
2023/01/20 07:34:00;;;;;;;41.60;20.05;;;;;;;-1.64;100.00;100694.31;4931318;29;20060;-81
2023/01/20 07:36:27;;;;;;;40.33;18.98;;;;;;;-1.71;100.00;100701.78;4904295;29;20071;-80
2023/01/20 07:38:54;;;;;;;42.50;20.05;;;;;;;-1.81;100.00;100714.16;4921535;29;20051;-82
2023/01/20 07:41:22;;;;;;;44.65;20.73;;;;;;;-1.88;100.00;100707.88;4925623;29;20112;-80
2023/01/20 07:43:52;;;;;;;35.03;19.63;;;;;;;-1.91;100.00;100720.59;4922016;29;20139;-78
2023/01/20 07:46:20;;;;;;;40.28;19.83;;;;;;;-2.00;100.00;100716.81;4903607;29;20182;-81
2023/01/20 07:48:48;;;;;;;45.50;20.67;;;;;;;-2.03;100.00;100726.94;4907436;29;20051;-80
2023/01/20 07:51:18;;;;;;;46.50;20.70;;;;;;;-2.01;100.00;100730.47;4917853;29;20044;-80
2023/01/20 07:53:49;;;;;;;42.10;20.92;;;;;;;-1.99;100.00;100730.53;4919476;29;20035;-80
2023/01/20 07:56:26;;;;;;;40.20;21.98;;;;;;;-2.01;100.00;100734.69;4917532;29;20044;-80
2023/01/20 07:58:56;;;;;;;45.05;20.30;;;;;;;-2.00;100.00;100733.91;4934491;29;20043;-80
2023/01/20 08:01:32;;;;;;;39.05;19.58;;;;;;;-2.04;100.00;100737.16;4941645;29;20048;-79
2023/01/20 08:04:00;;;;;;;44.22;22.58;;;;;;;-2.06;100.00;100744.78;4944031;29;20048;-80
2023/01/20 08:06:27;;;;;;;42.92;20.58;;;;;;;-2.01;100.00;100738.16;4929933;29;20059;-80
2023/01/20 08:08:57;;;;;;;54.75;23.48;;;;;;;-1.94;100.00;100740.97;4930671;29;20080;-80
2023/01/20 08:11:24;;;;;;;49.15;23.17;;;;;;;-1.92;100.00;100742.78;4918648;29;20102;-80
2023/01/20 08:13:53;;;;;;;42.25;22.45;;;;;;;-1.96;100.00;100745.19;4943134;29;20066;-79
2023/01/20 08:16:20;;;;;;;40.50;20.42;;;;;;;-1.99;100.00;100745.91;4926276;29;20103;-83
2023/01/20 08:18:47;;;;;;;38.17;19.60;;;;;;;-2.03;100.00;100751.75;4925149;29;20107;-79
2023/01/20 08:21:29;;;;;;;45.58;21.83;;;;;;;-2.01;100.00;100761.25;4942793;29;20043;-79
2023/01/20 08:24:01;;;;;;;45.67;20.98;;;;;;;-2.03;100.00;100767.13;4935539;29;20471;-79
2023/01/20 08:26:29;;;;;;;44.78;22.08;;;;;;;-2.01;100.00;100761.25;4932762;29;20040;-80
2023/01/20 08:29:03;;;;;;;52.78;21.42;;;;;;;-2.02;100.00;100756.94;4919366;29;20060;-80
2023/01/20 08:31:29;;;;;;;48.25;22.73;;;;;;;-1.97;100.00;100764.81;4922442;29;20041;-80
2023/01/20 08:34:00;;;;;;;40.47;20.48;;;;;;;-1.89;100.00;100765.13;4921286;29;20051;-80
2023/01/20 08:36:30;;;;;;;42.10;19.50;;;;;;;-1.88;100.00;100766.91;4938859;29;20052;-80
2023/01/20 08:39:00;;;;;;;44.40;20.27;;;;;;;-1.85;100.00;100778.19;4919751;29;20069;-81
2023/01/20 08:41:32;;;;;;;48.38;20.42;;;;;;;-1.80;100.00;100780.94;4922828;29;20582;-80
2023/01/20 08:44:01;;;;;;;39.63;21.70;;;;;;;-1.72;100.00;100779.59;4923510;29;20047;-80
2023/01/20 08:46:29;;;;;;;45.15;20.40;;;;;;;-1.59;100.00;100788.69;4932317;29;20051;-80
2023/01/20 08:48:56;;;;;;;49.03;22.85;;;;;;;-1.51;100.00;100784.75;4925048;29;20052;-80
2023/01/20 08:51:30;;;;;;;43.65;21.13;;;;;;;-1.52;100.00;100800.09;4915707;29;20051;-79
2023/01/20 08:53:57;;;;;;;46.78;20.70;;;;;;;-1.54;100.00;100801.72;4938490;29;20047;-79
2023/01/20 08:56:24;;;;;;;39.42;19.30;;;;;;;-1.55;100.00;100795.72;4906786;29;20463;-80
2023/01/20 08:58:52;;;;;;;42.63;20.33;;;;;;;-1.56;100.00;100805.94;4925242;29;20040;-81
2023/01/20 09:01:26;;;;;;;40.10;20.55;;;;;;;-1.57;100.00;100807.59;4902412;29;20513;-82
2023/01/20 09:03:55;;;;;;;37.22;19.42;;;;;;;-1.57;100.00;100809.28;4900591;29;20057;-79
2023/01/20 09:06:24;;;;;;;37.78;19.30;;;;;;;-1.54;100.00;100809.41;4886161;29;20071;-79
2023/01/20 09:08:53;;;;;;;38.60;18.67;;;;;;;-1.48;100.00;100806.25;4906275;29;20168;-80
2023/01/20 09:11:23;;;;;;;36.83;19.65;;;;;;;-1.44;100.00;100811.56;4898357;29;20140;-81
2023/01/20 09:13:49;;;;;;;38.38;18.13;;;;;;;-1.36;100.00;100809.31;4921337;29;20140;-80
2023/01/20 09:16:18;;;;;;;38.70;18.60;;;;;;;-1.26;100.00;100820.88;4908784;29;20064;-79
2023/01/20 09:18:45;;;;;;;32.03;17.77;;;;;;;-1.16;100.00;100817.88;4886227;29;20182;-80
2023/01/20 09:21:12;;;;;;;35.67;19.83;;;;;;;-1.00;100.00;100812.53;4891743;29;20079;-78
2023/01/20 09:23:41;;;;;;;36.78;19.80;;;;;;;-0.77;100.00;100814.25;4911078;29;20067;-80
2023/01/20 09:26:08;;;;;;;36.03;19.52;;;;;;;-0.54;100.00;100818.59;4884398;29;20139;-81
2023/01/20 09:28:35;;;;;;;37.80;19.35;;;;;;;-0.34;100.00;100823.63;4900494;29;20797;-79
2023/01/20 09:31:08;;;;;;;34.55;18.63;;;;;;;-0.17;100.00;100827.75;4889821;29;20056;-82
2023/01/20 09:33:39;;;;;;;32.13;18.08;;;;;;;0.03;100.00;100830.19;4887302;29;20056;-79
2023/01/20 09:36:10;;;;;;;47.65;21.40;;;;;;;0.23;100.00;100836.03;4888311;29;20052;-79
2023/01/20 09:44:48;;;;;;;34.83;18.52;;;;;;;1.01;100.00;100838.69;4909621;29;20041;-82
2023/01/20 09:47:37;;;;;;;33.22;16.30;;;;;;;1.33;100.00;100837.16;4902803;29;20040;-80
2023/01/20 09:53:59;;;;;;;32.67;16.33;;;;;;;1.59;100.00;100843.13;4906764;29;20087;-81
2023/01/20 09:56:28;;;;;;;33.97;17.73;;;;;;;1.66;100.00;100851.94;4900430;29;20056;-80
2023/01/20 09:59:19;;;;;;;33.58;16.88;;;;;;;1.69;100.00;100851.16;4896238;29;20048;-81
2023/01/20 10:01:51;;;;;;;30.90;15.63;;;;;;;1.70;100.00;100858.06;4915786;29;20098;-82
2023/01/20 10:04:25;;;;;;;22.83;13.77;;;;;;;1.76;100.00;100863.41;4918955;29;20042;-82
2023/01/20 10:07:07;;;;;;;36.10;16.60;;;;;;;1.75;99.87;100852.22;4933530;29;20397;-82
2023/01/20 10:09:44;;;;;;;25.85;14.77;;;;;;;1.65;100.00;100863.06;4929245;29;20479;-80
2023/01/20 10:12:19;;;;;;;25.48;15.85;;;;;;;1.34;99.00;100858.66;4891757;29;20059;-81
2023/01/20 10:14:55;;;;;;;27.58;13.63;;;;;;;1.10;100.00;100863.06;4925722;29;20168;-81
2023/01/20 10:17:36;;;;;;;27.85;14.48;;;;;;;0.89;100.00;100863.22;4904856;29;20051;-81
2023/01/20 10:20:29;;;;;;;25.30;14.70;;;;;;;0.73;100.00;100867.00;4925927;29;20047;-82
2023/01/20 10:22:55;;;;;;;27.45;14.93;;;;;;;0.64;100.00;100866.69;4896176;23;20139;-82
2023/01/20 10:25:34;;;;;;;20.33;12.68;;;;;;;0.56;100.00;100856.09;4940554;28;20090;-82
2023/01/20 10:28:18;;;;;;;29.60;15.95;;;;;;;0.51;100.00;100864.47;4939274;28;20682;-82
2023/01/20 10:30:45;;;;;;;23.43;13.57;;;;;;;0.48;100.00;100863.56;4935797;28;20070;-81
2023/01/20 10:33:16;;;;;;;28.17;16.63;;;;;;;0.45;100.00;100855.72;4953742;28;20115;-83
2023/01/20 10:35:47;;;;;;;30.77;16.98;;;;;;;0.41;100.00;100856.41;4952775;28;20162;-82
2023/01/20 10:38:44;;;;;;;29.00;16.25;;;;;;;0.41;100.00;100855.56;4931849;28;20055;-83
2023/01/20 10:41:54;;;;;;;33.92;18.02;;;;;;;0.40;100.00;100856.38;4924596;28;20541;-81
2023/01/20 10:44:23;;;;;;;24.63;13.55;;;;;;;0.38;100.00;100866.63;4941415;28;20059;-80
2023/01/20 10:47:32;;;;;;;27.55;15.57;;;;;;;0.41;100.00;100865.84;4945702;28;20049;-80
2023/01/20 10:50:17;;;;;;;31.02;14.63;;;;;;;0.44;100.00;100869.44;4936460;28;20051;-81
2023/01/20 10:53:23;;;;;;;24.48;13.55;;;;;;;0.45;100.00;100867.72;4931039;28;20138;-81
2023/01/20 10:56:19;;;;;;;26.48;14.65;;;;;;;0.49;100.00;100874.72;4934953;28;20051;-82
2023/01/20 10:58:48;;;;;;;26.75;12.88;;;;;;;0.54;100.00;100875.78;4932520;29;20036;-81
2023/01/20 11:01:20;;;;;;;26.00;14.07;;;;;;;0.61;100.00;100880.34;4918496;28;21373;-82
2023/01/20 11:03:51;;;;;;;30.15;13.40;;;;;;;0.69;100.00;100883.16;4928605;28;20039;-81
2023/01/20 11:06:27;;;;;;;27.95;14.63;;;;;;;0.81;100.00;100886.16;4930605;29;20561;-81
2023/01/20 11:08:55;;;;;;;26.92;15.23;;;;;;;0.94;100.00;100889.16;4925111;29;20080;-81
2023/01/20 11:11:25;;;;;;;24.98;14.15;;;;;;;1.03;99.92;100880.84;4904099;29;20047;-80
2023/01/20 11:13:53;;;;;;;22.77;13.20;;;;;;;1.24;99.01;100880.69;4933785;29;20098;-80
2023/01/20 11:16:28;;;;;;;24.85;12.95;;;;;;;1.45;96.35;100890.84;4930830;29;20058;-80
2023/01/20 11:19:04;;;;;;;20.83;11.70;;;;;;;1.59;95.63;100889.56;4938299;29;20058;-82
2023/01/20 11:21:35;;;;;;;21.20;12.68;;;;;;;1.67;95.12;100892.41;4925471;29;20059;-82
2023/01/20 11:24:32;;;;;;;23.45;13.48;;;;;;;1.85;95.01;100897.22;4947237;29;20506;-81
2023/01/20 11:27:06;;;;;;;25.73;13.10;;;;;;;1.97;92.83;100901.91;4933415;29;20051;-82
2023/01/20 11:29:44;;;;;;;23.58;12.63;;;;;;;2.02;91.91;100902.94;4948891;29;20801;-82
2023/01/20 11:32:40;;;;;;;22.27;13.30;;;;;;;2.16;91.10;100908.47;4946019;28;20514;-82
2023/01/20 11:35:26;;;;;;;21.83;12.75;;;;;;;2.30;89.86;100908.91;4923757;28;20059;-80
2023/01/20 11:37:56;;;;;;;24.05;14.15;;;;;;;2.46;89.73;100911.09;4917759;29;20489;-80